This is the latest recevied weather packets stored in our database for station/object KD0RII. If no packets are shown the sender has not sent any weather packets the latest 10 day(s).
| Time | Temp. | Humidity | Pressure | Rain* | Wind** | Luminosity | Snow |
|---|---|---|---|---|---|---|---|
| 1778167122 | 17.22° C | 59% | 1018.2 hPa | 0 mm | - | 498 W/m² | - |
| 1778166819 | 16.67° C | 60% | 1018.3 hPa | 0 mm | - | 483 W/m² | - |
| 1778166516 | 16.67° C | 61% | 1018.5 hPa | 0 mm | - | 468 W/m² | - |
| 1778166213 | 16.67° C | 60% | 1018.4 hPa | 0 mm | - | 452 W/m² | - |
| 1778165908 | 16.67° C | 62% | 1018.5 hPa | 0 mm | - | 436 W/m² | - |
| 1778165605 | 16.11° C | 60% | 1018.4 hPa | 0 mm | - | 415 W/m² | - |
| 1778165302 | 16.11° C | 64% | 1018.5 hPa | 0 mm | - | 404 W/m² | - |
| 1778165000 | 16.11° C | 60% | 1018.4 hPa | 0 mm | - | 388 W/m² | - |
| 1778164696 | 16.11° C | 62% | 1018.4 hPa | 0 mm | - | 371 W/m² | - |
| 1778164394 | 15.56° C | 66% | 1018.6 hPa | 0 mm | - | 355 W/m² | - |
| 1778164089 | 15.56° C | 65% | 1018.6 hPa | 0 mm | - | 338 W/m² | - |
| 1778163786 | 15.56° C | 64% | 1018.6 hPa | 0 mm | - | 180 W/m² | - |
| 1778163483 | 15.56° C | 65% | 1018.5 hPa | 0 mm | - | 137 W/m² | - |
| 1778163180 | 15° C | 67% | 1018.7 hPa | 0 mm | - | 313 W/m² | - |
| 1778162875 | 13.89° C | 72% | 1018.6 hPa | 0 mm | - | 294 W/m² | - |
| 1778162573 | 13.33° C | 74% | 1018.7 hPa | 0 mm | - | 280 W/m² | - |
| 1778162270 | 12.22° C | 80% | 1018.7 hPa | 0 mm | - | 241 W/m² | - |
| 1778161967 | 11.11° C | 89% | 1018.8 hPa | 0 mm | - | 80 W/m² | - |
| 1778161663 | 10.56° C | 92% | 1018.8 hPa | 0 mm | - | 123 W/m² | - |
| 1778161360 | 10° C | 93% | 1018.7 hPa | 0 mm | - | 58 W/m² | - |
| 1778161056 | 10° C | 94% | 1018.7 hPa | 0 mm | - | 51 W/m² | - |
| 1778160753 | 10° C | 95% | 1018.7 hPa | 0 mm | - | 56 W/m² | - |
| 1778160450 | 9.44° C | 95% | 1019 hPa | 0 mm | - | 81 W/m² | - |
| 1778160147 | 8.89° C | 95% | 1019 hPa | 0 mm | - | 85 W/m² | - |
| 1778159844 | 8.89° C | 95% | 1018.8 hPa | 0 mm | - | 71 W/m² | - |
* Rain latest hour (hover to see other rain measurements)
** Current wind speed in m/s (hover to see current wind gust speed)